createdAt,value
2023-04-02T00:00:19.613Z,88.30
2023-04-02T00:02:58.505Z,88.40
2023-04-02T00:05:37.228Z,88.65
2023-04-02T00:08:27.219Z,89.35
2023-04-02T00:11:02.410Z,88.38
2023-04-02T00:13:41.323Z,88.13
2023-04-02T00:16:23.488Z,88.14
2023-04-02T00:19:04.359Z,88.88
2023-04-02T00:21:39.984Z,87.83
2023-04-02T00:24:20.251Z,88.56
2023-04-02T00:26:54.457Z,88.45
2023-04-02T00:29:27.357Z,88.57
2023-04-02T00:32:00.424Z,88.81
2023-04-02T00:34:38.041Z,88.14
2023-04-02T00:37:25.300Z,88.31
2023-04-02T00:40:12.152Z,88.23
2023-04-02T00:42:46.468Z,88.62
2023-04-02T00:45:29.081Z,88.54
2023-04-02T00:48:36.172Z,88.70
2023-04-02T00:51:17.812Z,88.27
2023-04-02T00:53:56.001Z,88.82
2023-04-02T00:56:39.281Z,88.41
2023-04-02T00:59:51.317Z,87.70
2023-04-02T01:02:32.235Z,86.86
2023-04-02T01:05:26.284Z,87.27
2023-04-02T01:08:41.959Z,87.14
2023-04-02T01:11:29.439Z,87.32
2023-04-02T01:14:25.205Z,86.89
2023-04-02T01:17:18.525Z,87.07
2023-04-02T01:20:12.584Z,87.32
2023-04-02T01:23:14.812Z,87.71
2023-04-02T01:25:59.164Z,87.71
2023-04-02T01:29:01.965Z,87.17
2023-04-02T01:31:36.187Z,87.58
2023-04-02T01:34:15.395Z,87.03
2023-04-02T01:36:56.699Z,86.87
2023-04-02T01:39:48.489Z,86.45
2023-04-02T01:42:28.582Z,86.51
2023-04-02T01:45:09.741Z,86.88
2023-04-02T01:47:44.144Z,88.05
2023-04-02T01:50:22.386Z,87.92
2023-04-02T01:53:01.327Z,87.87
2023-04-02T01:55:50.040Z,87.29
2023-04-02T01:58:31.552Z,86.83
2023-04-02T02:01:14.716Z,87.21
2023-04-02T02:03:50.440Z,86.79
2023-04-02T02:06:24.371Z,86.40
2023-04-02T02:09:04.549Z,86.32
2023-04-02T02:11:37.137Z,86.14
2023-04-02T02:14:19.963Z,85.75
2023-04-02T02:16:56.748Z,85.36
2023-04-02T02:19:53.073Z,85.61
2023-04-02T02:22:34.062Z,85.90
2023-04-02T02:25:16.555Z,85.36
2023-04-02T02:28:22.718Z,85.09
2023-04-02T02:31:17.816Z,85.29
2023-04-02T02:33:57.018Z,85.07
2023-04-02T02:36:51.346Z,84.84
2023-04-02T02:39:34.569Z,84.19
2023-04-02T02:42:22.771Z,84.99
2023-04-02T02:44:58.652Z,84.70
2023-04-02T02:47:38.115Z,84.79
2023-04-02T02:50:26.078Z,85.06
2023-04-02T02:53:04.079Z,83.86
2023-04-02T02:55:38.480Z,84.33
2023-04-02T02:58:39.982Z,83.82
2023-04-02T03:01:12.749Z,84.23
2023-04-02T03:03:47.816Z,84.09
2023-04-02T03:06:21.659Z,84.74
2023-04-02T03:09:10.758Z,84.62
2023-04-02T03:11:54.609Z,84.55
2023-04-02T03:14:40.325Z,85.08
2023-04-02T03:17:45.017Z,85.02
2023-04-02T03:20:44.958Z,85.03
2023-04-02T03:23:25.718Z,85.08
2023-04-02T03:26:23.912Z,84.85
2023-04-02T03:29:17.360Z,85.06
2023-04-02T03:32:16.638Z,84.91
2023-04-02T03:35:00.116Z,84.63
2023-04-02T03:37:53.156Z,84.85
2023-04-02T03:40:34.907Z,84.45
2023-04-02T03:43:23.148Z,85.17
2023-04-02T03:46:12.247Z,83.93
2023-04-02T03:49:07.568Z,84.29
2023-04-02T03:52:06.558Z,84.17
2023-04-02T03:54:41.057Z,83.83
2023-04-02T03:57:38.215Z,84.06
2023-04-02T04:00:23.085Z,84.71
2023-04-02T04:03:09.526Z,84.23
2023-04-02T04:06:01.265Z,84.68
2023-04-02T04:08:55.041Z,84.68
2023-04-02T04:11:36.488Z,83.88
2023-04-02T04:14:31.505Z,83.99
2023-04-02T04:17:34.678Z,84.12
2023-04-02T04:20:22.304Z,83.56
2023-04-02T04:22:55.859Z,84.42
2023-04-02T04:25:33.651Z,83.67
2023-04-02T04:28:27.062Z,84.38
2023-04-02T04:31:21.176Z,84.39
2023-04-02T04:34:05.100Z,83.80
2023-04-02T04:36:55.136Z,84.46
2023-04-02T04:39:45.157Z,84.07
2023-04-02T04:42:25.555Z,83.71
2023-04-02T04:45:17.086Z,83.09
2023-04-02T04:48:00.415Z,82.80
2023-04-02T04:51:00.224Z,82.31
2023-04-02T04:53:32.796Z,82.89
2023-04-02T04:56:18.681Z,83.21
2023-04-02T04:59:03.263Z,83.52
2023-04-02T05:01:48.809Z,82.52
2023-04-02T05:04:36.279Z,82.36
2023-04-02T05:07:23.008Z,83.03
2023-04-02T05:10:17.216Z,82.53
2023-04-02T05:13:16.996Z,83.06
2023-04-02T05:16:11.558Z,83.56
2023-04-02T05:19:16.471Z,82.92
2023-04-02T05:22:17.798Z,83.15
2023-04-02T05:25:11.120Z,83.25
2023-04-02T05:28:07.837Z,82.64
2023-04-02T05:30:46.854Z,82.80
2023-04-02T05:33:29.847Z,82.44
2023-04-02T05:36:09.473Z,82.10
2023-04-02T05:38:48.562Z,82.56
2023-04-02T05:41:28.976Z,81.48
2023-04-02T05:44:11.435Z,81.65
2023-04-02T05:46:58.770Z,81.24
2023-04-02T05:50:24.992Z,81.67
2023-04-02T05:53:08.758Z,81.04
2023-04-02T05:55:59.437Z,81.79
2023-04-02T05:58:37.286Z,80.95
2023-04-02T06:01:33.502Z,81.18
2023-04-02T06:04:34.215Z,81.58
2023-04-02T06:07:22.339Z,81.64
2023-04-02T06:10:03.396Z,81.16
2023-04-02T06:13:05.957Z,82.06
2023-04-02T06:15:39.364Z,80.95
2023-04-02T06:18:23.498Z,81.28
2023-04-02T06:20:57.605Z,80.95
2023-04-02T06:23:39.521Z,80.88
2023-04-02T06:26:39.468Z,80.21
2023-04-02T06:29:30.504Z,80.46
2023-04-02T06:32:07.153Z,80.66
2023-04-02T06:34:42.503Z,80.30
2023-04-02T06:37:40.734Z,79.46
2023-04-02T06:40:33.630Z,79.22
2023-04-02T06:43:21.236Z,79.44
2023-04-02T06:45:58.834Z,79.28
2023-04-02T06:48:35.366Z,78.79
2023-04-02T06:51:13.193Z,78.68
2023-04-02T06:53:50.125Z,78.61
2023-04-02T06:56:31.807Z,78.17
2023-04-02T06:59:04.816Z,77.63
2023-04-02T07:01:46.887Z,77.49
2023-04-02T07:04:22.113Z,77.51
2023-04-02T07:06:54.774Z,77.24
2023-04-02T07:09:27.358Z,77.34
2023-04-02T07:11:59.956Z,76.57
2023-04-02T07:14:32.568Z,76.81
2023-04-02T07:17:05.200Z,76.29
2023-04-02T07:19:37.739Z,76.53
2023-04-02T07:22:10.343Z,75.67
2023-04-02T07:24:43.204Z,75.41
2023-04-02T07:27:15.883Z,75.20
2023-04-02T07:29:48.474Z,75.95
2023-04-02T07:32:21.132Z,75.10
2023-04-02T07:34:53.782Z,74.82
2023-04-02T07:37:26.643Z,75.37
2023-04-02T07:39:59.281Z,75.38
2023-04-02T07:42:32.085Z,74.84
2023-04-02T07:45:06.171Z,74.56
2023-04-02T07:47:40.254Z,74.82
2023-04-02T07:50:13.439Z,74.83
2023-04-02T07:52:46.373Z,75.07
2023-04-02T07:55:18.934Z,75.14
2023-04-02T07:57:55.993Z,74.15
2023-04-02T08:00:30.387Z,74.39
2023-04-02T08:03:04.763Z,74.34
2023-04-02T08:05:37.555Z,73.78
2023-04-02T08:08:10.400Z,74.25
2023-04-02T08:10:43.023Z,74.48
2023-04-02T08:13:17.604Z,73.61
2023-04-02T08:15:50.346Z,73.56
2023-04-02T08:18:23.581Z,73.43
2023-04-02T08:20:57.852Z,73.16
2023-04-02T08:23:30.400Z,72.40
2023-04-02T08:26:03.375Z,72.76
2023-04-02T08:28:36.284Z,71.55
2023-04-02T08:31:09.083Z,71.54
2023-04-02T08:33:41.712Z,72.45
2023-04-02T08:36:19.730Z,72.14
2023-04-02T08:38:52.349Z,72.00
2023-04-02T08:41:32.185Z,72.58
2023-04-02T08:44:32.364Z,72.08
2023-04-02T08:47:09.803Z,72.13
2023-04-02T08:49:52.806Z,71.56
2023-04-02T08:52:37.293Z,71.94
2023-04-02T08:56:05.280Z,71.21
2023-04-02T08:58:43.544Z,70.76
2023-04-02T09:01:52.193Z,70.93
2023-04-02T09:04:27.060Z,71.50
2023-04-02T09:07:00.903Z,71.03
2023-04-02T09:09:38.718Z,71.32
2023-04-02T09:12:32.057Z,71.45
2023-04-02T09:15:11.093Z,71.88
2023-04-02T09:17:53.596Z,70.96
2023-04-02T09:20:29.299Z,69.72
2023-04-02T09:23:02.136Z,69.92
2023-04-02T09:25:34.995Z,70.01
2023-04-02T09:28:14.113Z,69.90
2023-04-02T09:31:16.107Z,69.61
2023-04-02T09:33:54.686Z,70.14
2023-04-02T09:36:37.180Z,70.63
2023-04-02T09:39:18.431Z,70.48
2023-04-02T09:42:02.876Z,70.83
2023-04-02T09:44:38.258Z,70.48
2023-04-02T09:47:27.164Z,71.24
2023-04-02T09:50:22.685Z,70.03
2023-04-02T09:52:55.908Z,69.45
2023-04-02T09:55:31.181Z,69.74
2023-04-02T09:58:15.904Z,70.34
2023-04-02T10:00:54.253Z,68.76
2023-04-02T10:03:32.783Z,70.95
2023-04-02T10:06:15.829Z,70.34
2023-04-02T10:08:48.550Z,70.54
2023-04-02T10:11:43.738Z,70.79
2023-04-02T10:14:28.473Z,70.08
2023-04-02T10:17:20.771Z,71.00
2023-04-02T10:20:06.414Z,71.13
2023-04-02T10:22:40.650Z,71.23
2023-04-02T10:25:17.476Z,70.67
2023-04-02T10:27:55.878Z,70.32
2023-04-02T10:31:10.089Z,69.72
2023-04-02T10:33:51.752Z,68.51
2023-04-02T10:36:50.733Z,70.04
2023-04-02T10:39:32.933Z,70.53
2023-04-02T10:42:51.393Z,69.76
2023-04-02T10:45:59.844Z,70.00
2023-04-02T10:48:47.426Z,68.68
2023-04-02T10:51:34.928Z,69.41
2023-04-02T10:54:19.256Z,68.86
2023-04-02T10:56:54.984Z,69.22
2023-04-02T10:59:37.069Z,69.41
2023-04-02T11:02:36.538Z,68.41
2023-04-02T11:05:52.364Z,69.20
2023-04-02T11:08:36.896Z,69.10
2023-04-02T11:11:14.816Z,68.54
2023-04-02T11:14:18.960Z,67.30
2023-04-02T11:16:55.214Z,67.30
2023-04-02T11:19:31.182Z,67.45
2023-04-02T11:22:21.120Z,67.04
2023-04-02T11:24:57.355Z,66.36
2023-04-02T11:27:33.822Z,66.44
2023-04-02T11:30:28.180Z,67.39
2023-04-02T11:33:34.068Z,65.21
2023-04-02T11:36:50.764Z,64.08
2023-04-02T11:39:56.826Z,65.38
2023-04-02T11:42:35.453Z,65.16
2023-04-02T11:45:51.866Z,64.31
2023-04-02T11:48:36.271Z,65.04
2023-04-02T11:51:21.435Z,63.54
2023-04-02T11:53:58.288Z,64.71
2023-04-02T11:57:05.484Z,64.43
2023-04-02T12:00:08.730Z,63.53
2023-04-02T12:03:06.885Z,63.92
2023-04-02T12:05:58.597Z,65.31
2023-04-02T12:08:58.441Z,63.64
2023-04-02T12:11:35.855Z,65.18
2023-04-02T12:14:38.620Z,64.78
2023-04-02T12:17:31.981Z,65.60
2023-04-02T12:20:23.345Z,66.02
2023-04-02T12:22:58.271Z,65.71
2023-04-02T12:25:40.002Z,66.25
2023-04-02T12:28:20.717Z,65.83
2023-04-02T12:31:09.249Z,65.71
2023-04-02T12:33:43.108Z,65.50
2023-04-02T12:36:26.787Z,65.60
2023-04-02T12:38:59.486Z,65.25
2023-04-02T12:41:36.506Z,64.94
2023-04-02T12:44:22.815Z,65.54
2023-04-02T12:46:57.805Z,64.36
2023-04-02T12:49:44.179Z,64.91
2023-04-02T12:52:30.632Z,64.68
2023-04-02T12:55:05.157Z,64.62
2023-04-02T12:57:39.750Z,63.04
2023-04-02T13:00:27.881Z,64.41
2023-04-02T13:03:02.829Z,65.16
2023-04-02T13:05:46.835Z,63.21
2023-04-02T13:08:27.348Z,64.39
2023-04-02T13:11:03.038Z,65.20
2023-04-02T13:13:41.358Z,65.12
2023-04-02T13:16:26.967Z,63.26
2023-04-02T13:19:17.677Z,63.25
2023-04-02T13:21:56.376Z,62.00
2023-04-02T13:24:32.635Z,62.26
2023-04-02T13:27:05.532Z,61.54
2023-04-02T13:29:40.505Z,61.30
2023-04-02T13:32:13.488Z,59.93
2023-04-02T13:34:46.637Z,59.68
2023-04-02T13:37:19.254Z,58.80
2023-04-02T13:39:51.823Z,57.51
2023-04-02T13:42:24.420Z,58.84
2023-04-02T13:44:56.993Z,59.01
2023-04-02T13:47:29.659Z,57.92
2023-04-02T13:50:02.241Z,57.23
2023-04-02T13:52:34.768Z,58.24
2023-04-02T13:55:08.898Z,57.23
2023-04-02T13:57:41.504Z,56.53
2023-04-02T14:00:14.548Z,58.12
2023-04-02T14:02:54.448Z,57.59
2023-04-02T14:05:41.762Z,54.84
2023-04-02T14:08:32.459Z,54.90
2023-04-02T14:11:38.331Z,56.03
2023-04-02T14:14:32.757Z,56.70
2023-04-02T14:17:17.591Z,57.04
2023-04-02T14:20:16.941Z,57.49
2023-04-02T14:23:10.930Z,55.72
2023-04-02T14:26:11.296Z,55.49
2023-04-02T14:29:11.537Z,55.26
2023-04-02T14:32:19.896Z,57.03
2023-04-02T14:35:40.029Z,56.43
2023-04-02T14:38:36.672Z,55.14
2023-04-02T14:41:31.174Z,54.35
2023-04-02T14:44:07.348Z,53.74
2023-04-02T14:46:41.732Z,53.33
2023-04-02T14:49:35.001Z,53.94
2023-04-02T14:52:18.455Z,53.63
2023-04-02T14:55:02.402Z,53.52
2023-04-02T14:57:51.891Z,53.16
2023-04-02T15:00:39.902Z,52.95
2023-04-02T15:03:23.642Z,52.66
2023-04-02T15:06:02.928Z,52.48
2023-04-02T15:09:11.782Z,53.54
2023-04-02T15:12:23.808Z,52.30
2023-04-02T15:15:22.213Z,51.77
2023-04-02T15:18:02.286Z,51.66
2023-04-02T15:20:45.441Z,52.85
2023-04-02T15:23:55.330Z,50.86
2023-04-02T15:26:53.657Z,52.81
2023-04-02T15:29:45.410Z,49.12
2023-04-02T15:32:39.356Z,49.61
2023-04-02T15:35:47.576Z,50.82
2023-04-02T15:38:45.551Z,50.67
2023-04-02T15:41:35.896Z,50.55
2023-04-02T15:44:17.295Z,51.81
2023-04-02T15:47:16.708Z,50.86
2023-04-02T15:50:21.234Z,50.25
2023-04-02T15:53:16.930Z,51.39
2023-04-02T15:56:25.940Z,50.45
2023-04-02T15:59:29.341Z,49.30
2023-04-02T16:02:23.654Z,48.26
2023-04-02T16:05:11.396Z,48.01
2023-04-02T16:08:03.212Z,47.70
2023-04-02T16:10:42.951Z,46.71
2023-04-02T16:13:38.115Z,45.29
2023-04-02T16:16:29.421Z,46.31
2023-04-02T16:19:26.740Z,47.27
2023-04-02T16:22:22.533Z,45.66
2023-04-02T16:25:13.739Z,46.76
2023-04-02T16:28:15.749Z,45.48
2023-04-02T16:31:25.088Z,45.21
2023-04-02T16:34:21.198Z,45.68
2023-04-02T16:37:12.751Z,45.02
2023-04-02T16:40:17.276Z,44.47
2023-04-02T16:43:09.583Z,44.71
2023-04-02T16:46:03.606Z,44.65
2023-04-02T16:48:51.860Z,44.54
2023-04-02T16:51:52.881Z,45.21
2023-04-02T16:54:53.371Z,44.64
2023-04-02T16:57:52.832Z,44.69
2023-04-02T17:00:47.132Z,45.10
2023-04-02T17:03:56.916Z,44.29
2023-04-02T17:07:10.327Z,44.53
2023-04-02T17:10:06.845Z,45.14
2023-04-02T17:12:47.574Z,45.57
2023-04-02T17:15:28.620Z,44.64
2023-04-02T17:18:08.458Z,45.47
2023-04-02T17:20:41.676Z,45.99
2023-04-02T17:23:17.506Z,45.88
2023-04-02T17:26:02.243Z,45.87
2023-04-02T17:28:37.066Z,46.78
2023-04-02T17:31:23.225Z,47.11
2023-04-02T17:33:56.666Z,47.80
2023-04-02T17:36:46.652Z,47.55
2023-04-02T17:39:54.536Z,47.24
2023-04-02T17:42:58.369Z,46.77
2023-04-02T17:45:52.281Z,47.32
2023-04-02T17:48:45.807Z,47.57
2023-04-02T17:51:30.392Z,48.35
2023-04-02T17:54:11.707Z,48.41
2023-04-02T17:57:03.199Z,49.75
2023-04-02T17:59:53.617Z,49.93
2023-04-02T18:03:21.395Z,51.54
2023-04-02T18:06:03.516Z,52.43
2023-04-02T18:08:54.023Z,53.30
2023-04-02T18:11:59.776Z,53.95
2023-04-02T18:15:00.517Z,55.36
2023-04-02T18:17:54.287Z,55.76
2023-04-02T18:20:53.646Z,56.03
2023-04-02T18:23:54.347Z,56.61
2023-04-02T18:26:56.898Z,56.83
2023-04-02T18:30:01.469Z,57.26
2023-04-02T18:32:52.079Z,58.53
2023-04-02T18:35:39.421Z,59.05
2023-04-02T18:38:44.331Z,58.54
2023-04-02T18:42:00.900Z,58.69
2023-04-02T18:45:13.442Z,59.03
2023-04-02T18:48:28.965Z,59.86
2023-04-02T18:51:02.258Z,59.94
2023-04-02T18:53:36.368Z,60.49
2023-04-02T18:56:19.993Z,60.29
2023-04-02T18:59:42.357Z,61.16
2023-04-02T19:02:20.971Z,60.83
2023-04-02T19:05:21.591Z,61.97
2023-04-02T19:08:24.846Z,61.41
2023-04-02T19:11:14.281Z,61.62
2023-04-02T19:13:49.064Z,62.01
2023-04-02T19:16:52.021Z,62.40
2023-04-02T19:19:38.149Z,62.59
2023-04-02T19:22:42.574Z,63.50
2023-04-02T19:25:36.579Z,63.85
2023-04-02T19:28:39.374Z,64.74
2023-04-02T19:31:30.805Z,64.65
2023-04-02T19:34:28.330Z,65.59
2023-04-02T19:37:36.517Z,65.47
2023-04-02T19:40:31.763Z,65.79
2023-04-02T19:43:04.476Z,66.28
2023-04-02T19:46:03.355Z,66.89
2023-04-02T19:48:57.354Z,67.52
2023-04-02T19:51:30.125Z,67.41
2023-04-02T19:54:02.732Z,67.91
2023-04-02T19:56:35.642Z,67.88
2023-04-02T19:59:17.615Z,68.36
2023-04-02T20:01:50.374Z,69.05
2023-04-02T20:04:23.031Z,68.99
2023-04-02T20:06:55.777Z,68.98
2023-04-02T20:09:29.829Z,69.05
2023-04-02T20:12:02.440Z,69.95
2023-04-02T20:14:35.375Z,70.53
2023-04-02T20:17:07.940Z,71.05
2023-04-02T20:19:40.786Z,71.39
2023-04-02T20:22:13.475Z,71.41
2023-04-02T20:24:46.300Z,72.36
2023-04-02T20:27:18.995Z,72.68
2023-04-02T20:29:51.624Z,72.85
2023-04-02T20:32:24.467Z,72.63
2023-04-02T20:34:58.270Z,72.45
2023-04-02T20:37:30.785Z,72.77
2023-04-02T20:40:03.953Z,72.82
2023-04-02T20:42:36.812Z,73.02
2023-04-02T20:45:10.238Z,73.96
2023-04-02T20:47:43.309Z,73.45
2023-04-02T20:50:16.558Z,73.96
2023-04-02T20:52:49.156Z,73.81
2023-04-02T20:55:21.774Z,74.41
2023-04-02T20:57:54.743Z,74.95
2023-04-02T21:00:27.333Z,74.39
2023-04-02T21:03:00.735Z,74.61
2023-04-02T21:05:33.365Z,74.67
2023-04-02T21:08:06.072Z,74.78
2023-04-02T21:10:40.368Z,74.92
2023-04-02T21:13:12.933Z,74.92
2023-04-02T21:15:45.822Z,75.03
2023-04-02T21:18:18.545Z,75.50
2023-04-02T21:21:03.777Z,75.66
2023-04-02T21:23:36.516Z,75.86
2023-04-02T21:26:14.713Z,75.67
2023-04-02T21:28:47.294Z,75.95
2023-04-02T21:31:27.108Z,76.46
2023-04-02T21:34:00.078Z,76.77
2023-04-02T21:36:37.098Z,76.91
2023-04-02T21:39:16.889Z,76.96
2023-04-02T21:41:53.025Z,77.06
2023-04-02T21:44:25.977Z,76.66
2023-04-02T21:46:58.615Z,77.65
2023-04-02T21:49:31.238Z,77.49
2023-04-02T21:52:03.945Z,78.42
2023-04-02T21:54:36.573Z,78.47
2023-04-02T21:57:09.209Z,78.04
2023-04-02T21:59:41.786Z,78.30
2023-04-02T22:02:14.402Z,78.59
2023-04-02T22:04:46.945Z,78.20
2023-04-02T22:07:19.478Z,77.64
2023-04-02T22:09:52.096Z,77.73
2023-04-02T22:12:24.734Z,77.96
2023-04-02T22:14:57.387Z,77.86
2023-04-02T22:17:29.938Z,78.82
2023-04-02T22:20:02.624Z,78.64
2023-04-02T22:22:35.241Z,78.68
2023-04-02T22:25:08.599Z,78.17
2023-04-02T22:27:41.515Z,78.80
2023-04-02T22:30:14.521Z,78.62
2023-04-02T22:32:47.106Z,79.39
2023-04-02T22:35:19.679Z,79.25
2023-04-02T22:37:52.284Z,79.38
2023-04-02T22:40:25.503Z,78.92
2023-04-02T22:42:58.157Z,79.00
2023-04-02T22:45:34.821Z,78.93
2023-04-02T22:48:07.499Z,80.09
2023-04-02T22:50:40.255Z,80.18
2023-04-02T22:53:15.259Z,80.29
2023-04-02T22:55:48.261Z,79.84
2023-04-02T22:58:21.602Z,80.59
2023-04-02T23:00:54.252Z,79.80
2023-04-02T23:03:26.815Z,80.40
2023-04-02T23:06:03.892Z,80.42
2023-04-02T23:08:38.076Z,80.60
2023-04-02T23:11:23.527Z,80.72
2023-04-02T23:13:58.028Z,80.33
2023-04-02T23:16:30.766Z,79.91
2023-04-02T23:19:03.873Z,80.24
2023-04-02T23:21:36.466Z,80.79
2023-04-02T23:24:12.652Z,80.56
2023-04-02T23:26:45.532Z,81.47
2023-04-02T23:29:18.089Z,81.37
2023-04-02T23:31:50.881Z,81.56
2023-04-02T23:34:23.524Z,82.01
2023-04-02T23:36:56.062Z,81.53
2023-04-02T23:39:28.597Z,81.86
2023-04-02T23:42:01.683Z,81.46
2023-04-02T23:44:34.401Z,81.76
2023-04-02T23:47:07.082Z,82.55
2023-04-02T23:49:39.691Z,82.24
2023-04-02T23:52:12.316Z,82.89
2023-04-02T23:54:44.911Z,83.18
2023-04-02T23:57:17.924Z,82.69
2023-04-02T23:59:50.492Z,82.96
